This is the latest recevied weather packets stored in our database for station/object WX4TAZ. If no packets are shown the sender has not sent any weather packets the latest 10 day(s).
| Time | Temp. | Humidity | Pressure | Rain* | Wind** | Luminosity | Snow |
|---|---|---|---|---|---|---|---|
| 1777530962 | 10.56° C | 55% | 1017.4 hPa | 0 mm | - | - | - |
| 1777528563 | 10° C | 47% | 1017.3 hPa | 0 mm | - | - | - |
| 1777519563 | 11.11° C | 43% | 1017.5 hPa | 0 mm | - | - | - |
| 1777519264 | 11.11° C | 43% | 1017.5 hPa | 0 mm | - | - | - |
| 1777518363 | 11.11° C | 44% | 1017.4 hPa | 0 mm | - | - | - |
| 1777497064 | 14.44° C | 29% | 1017.6 hPa | 0 mm | - | - | - |
| 1777496463 | 15° C | 30% | 1017.6 hPa | 0 mm | - | - | - |
| 1777495563 | 14.44° C | 31% | 1017.9 hPa | 0 mm | - | - | - |
| 1777492563 | 13.89° C | 32% | 1018.4 hPa | 0 mm | - | - | - |
| 1777488363 | 13.33° C | 34% | 1019.3 hPa | 0 mm | - | - | - |
| 1777483264 | 12.22° C | 42% | 1020.2 hPa | 0 mm | - | - | - |
| 1777473063 | 7.78° C | 68% | 1020.6 hPa | 0 mm | - | - | - |
| 1777472464 | 7.22° C | 69% | 1020.6 hPa | 0 mm | - | - | - |
| 1777453563 | 5° C | 71% | 1018.7 hPa | 0 mm | - | - | - |
| 1777449664 | 5.56° C | 64% | 1018.9 hPa | 0 mm | - | - | - |
| 1777448162 | 5.56° C | 63% | 1018.9 hPa | 0 mm | - | - | - |
| 1777444863 | 7.22° C | 62% | 1018.8 hPa | 0 mm | - | - | - |
| 1777417264 | 11.11° C | 44% | 1016 hPa | 0 mm | - | - | - |
| 1777410064 | 11.11° C | 42% | 1016.4 hPa | 0 mm | - | - | - |
| 1777404664 | 11.67° C | 42% | 1017.1 hPa | 0 mm | - | - | - |
| 1777378563 | 5° C | 73% | 1015.2 hPa | 0 mm | - | - | - |
| 1777374663 | 5° C | 74% | 1016.2 hPa | 0 mm | - | - | - |
| 1777371664 | 5° C | 74% | 1014.9 hPa | 0 mm | - | - | - |
| 1777364763 | 6.11° C | 73% | 1015 hPa | 0 mm | - | - | - |
| 1777363863 | 6.67° C | 73% | 1014.7 hPa | 0 mm | - | - | - |
* Rain latest hour (hover to see other rain measurements)
** Current wind speed in m/s (hover to see current wind gust speed)